Northolt, United Kingdom

4:47 PM BST on July 28, 2016 (GMT +0100)
Adelphi Crescent | | Change Station

Elev 104 ft 51.53 °N, 0.42 °W | Updated 4 minutes ago

Overcast
Overcast
67.3 °F
Feels Like 67.3 °F
N
2.5
Wind Variable Wind from SW
Gusts 6.8 mph

Today
High -- | Low -- °F
--% Chance of Precip.
Yesterday
High -- | Low -- °F
Precip. -- in
Pressure 29.92 in
Visibility 6.2 miles
Clouds Overcast 1200 ft
Dew Point 60 °F
Humidity 77%
Rainfall 0.00 in
Snow Depth Not available.
5:19 AM 8:55 PM
Waning Crescent, 31% visible
METAR EGLL 281520Z AUTO 22011KT 180V250 9999 OVC012 19/15 Q1013 TEMPO SHRA
Pressure 29.92 in
Visibility 6.2 miles
Clouds Overcast 1200 ft
Dew Point 60 °F
Humidity 77%
Rainfall 0.00 in
Snow Depth Not available.
5:19 AM 8:55 PM
Waning Crescent, 31% visible
METAR EGLL 281520Z AUTO 22011KT 180V250 9999 OVC012 19/15 Q1013 TEMPO SHRA

10-Day Weather Forecast

×

Almanac

Astronomy

Jul. 28, 2016 Rise Set
Actual Time
Civil Twilight
Nautical Twilight
Astronomical Twilight
Moon
Length of Visible Light
Length of Day
Tomorrow will be .
, % of the Moon is Illuminated

Today's Extremes

Country Highs Country Lows

Community

WunderPhotos

Upload Photos

1,928,140 photos uploaded!

WunderBlog® & News

Nearby

Air Quality

  Air Quality AQ Index Pollutant
Not available.

Snow Depth

Station Depth Elevation

Earthquake Activity

City Distance Mag. Time & Date
Minimum magnitude displayed is 2.5.

Coastal Water Temperatures

Place Temperature

Stations

Nearby Weather Stations

Station Location Temp. Windchill Dew Point Humidity Wind Precip. Elev Updated Type